createdAt,value
2023-05-05T00:01:15.764Z,12.80
2023-05-05T00:03:43.106Z,12.80
2023-05-05T00:06:09.806Z,12.80
2023-05-05T00:08:36.397Z,12.70
2023-05-05T00:11:03.096Z,12.70
2023-05-05T00:13:29.740Z,12.70
2023-05-05T00:15:56.441Z,12.70
2023-05-05T00:18:23.110Z,12.60
2023-05-05T00:20:49.753Z,12.60
2023-05-05T00:23:16.453Z,12.60
2023-05-05T00:25:43.076Z,12.60
2023-05-05T00:28:09.705Z,12.60
2023-05-05T00:30:36.312Z,12.60
2023-05-05T00:33:03.069Z,12.60
2023-05-05T00:35:29.744Z,12.70
2023-05-05T00:37:56.397Z,12.70
2023-05-05T00:40:23.646Z,12.60
2023-05-05T00:42:53.436Z,12.60
2023-05-05T00:45:20.154Z,12.60
2023-05-05T00:47:46.817Z,12.60
2023-05-05T00:50:13.472Z,12.50
2023-05-05T00:52:40.128Z,12.40
2023-05-05T00:55:07.217Z,12.40
2023-05-05T00:57:34.032Z,12.30
2023-05-05T01:00:01.397Z,12.30
2023-05-05T01:02:28.186Z,12.30
2023-05-05T01:04:55.562Z,12.20
2023-05-05T01:07:22.373Z,12.20
2023-05-05T01:09:50.665Z,12.10
2023-05-05T01:12:20.202Z,12.10
2023-05-05T01:14:46.818Z,12.00
2023-05-05T01:17:14.025Z,12.00
2023-05-05T01:19:40.698Z,11.90
2023-05-05T01:22:07.314Z,11.90
2023-05-05T01:24:34.360Z,11.80
2023-05-05T01:27:01.001Z,11.70
2023-05-05T01:29:27.905Z,11.70
2023-05-05T01:31:54.670Z,11.60
2023-05-05T01:34:21.665Z,11.60
2023-05-05T01:36:48.389Z,11.60
2023-05-05T01:39:15.015Z,11.60
2023-05-05T01:41:41.726Z,11.60
2023-05-05T01:44:08.352Z,11.50
2023-05-05T01:46:35.011Z,11.50
2023-05-05T01:49:01.720Z,11.50
2023-05-05T01:51:28.669Z,11.50
2023-05-05T01:53:55.316Z,11.50
2023-05-05T01:56:21.967Z,11.50
2023-05-05T01:58:48.646Z,11.50
2023-05-05T02:01:15.393Z,11.50
2023-05-05T02:03:42.149Z,11.40
2023-05-05T02:06:08.750Z,11.40
2023-05-05T02:08:36.119Z,11.40
2023-05-05T02:11:02.846Z,11.30
2023-05-05T02:13:29.480Z,11.20
2023-05-05T02:15:56.120Z,11.20
2023-05-05T02:18:22.794Z,11.20
2023-05-05T02:20:49.733Z,11.10
2023-05-05T02:23:16.321Z,11.10
2023-05-05T02:25:42.961Z,11.00
2023-05-05T02:28:09.625Z,11.00
2023-05-05T02:30:36.321Z,11.00
2023-05-05T02:33:03.017Z,11.00
2023-05-05T02:35:29.730Z,10.90
2023-05-05T02:37:56.981Z,10.90
2023-05-05T02:40:23.581Z,10.90
2023-05-05T02:42:50.491Z,10.90
2023-05-05T02:45:17.228Z,10.90
2023-05-05T02:47:43.871Z,11.00
2023-05-05T02:50:10.675Z,11.00
2023-05-05T02:52:37.446Z,11.10
2023-05-05T02:55:04.067Z,11.20
2023-05-05T02:57:30.794Z,11.20
2023-05-05T02:59:57.482Z,11.30
2023-05-05T03:02:24.280Z,11.30
2023-05-05T03:04:51.032Z,11.40
2023-05-05T03:07:17.698Z,11.40
2023-05-05T03:09:44.311Z,11.40
2023-05-05T03:12:11.017Z,11.40
2023-05-05T03:14:37.694Z,11.50
2023-05-05T03:17:04.359Z,11.50
2023-05-05T03:19:30.940Z,11.60
2023-05-05T03:21:57.573Z,11.60
2023-05-05T03:24:24.311Z,11.60
2023-05-05T03:26:51.197Z,11.60
2023-05-05T03:29:17.821Z,11.60
2023-05-05T03:31:44.594Z,11.60
2023-05-05T03:34:11.322Z,11.70
2023-05-05T03:36:37.970Z,11.70
2023-05-05T03:39:04.669Z,11.80
2023-05-05T03:41:31.297Z,11.90
2023-05-05T03:43:57.932Z,12.00
2023-05-05T03:46:24.632Z,12.10
2023-05-05T03:48:51.771Z,12.10
2023-05-05T03:51:18.402Z,12.30
2023-05-05T03:53:45.005Z,12.20
2023-05-05T03:56:11.658Z,12.30
2023-05-05T03:58:38.325Z,12.30
2023-05-05T04:01:05.368Z,12.30
2023-05-05T04:03:32.327Z,12.30
2023-05-05T04:05:59.115Z,12.40
2023-05-05T04:08:25.811Z,12.40
2023-05-05T04:10:52.447Z,12.40
2023-05-05T04:13:19.220Z,12.40
2023-05-05T04:15:46.156Z,12.40
2023-05-05T04:18:12.833Z,12.30
2023-05-05T04:20:39.461Z,12.30
2023-05-05T04:23:06.160Z,12.30
2023-05-05T04:25:32.745Z,12.30
2023-05-05T04:27:59.355Z,12.30
2023-05-05T04:30:25.935Z,12.30
2023-05-05T04:32:52.597Z,12.30
2023-05-05T04:35:19.267Z,12.30
2023-05-05T04:37:46.134Z,12.30
2023-05-05T04:40:13.136Z,12.20
2023-05-05T04:42:39.749Z,12.20
2023-05-05T04:45:07.104Z,12.20
2023-05-05T04:47:33.704Z,12.30
2023-05-05T04:50:00.350Z,12.30
2023-05-05T04:52:27.012Z,12.40
2023-05-05T04:54:53.653Z,12.40
2023-05-05T04:57:20.317Z,12.40
2023-05-05T04:59:46.972Z,12.50
2023-05-05T05:02:13.649Z,12.50
2023-05-05T05:04:40.305Z,12.60
2023-05-05T05:07:06.886Z,12.60
2023-05-05T05:09:33.523Z,12.60
2023-05-05T05:12:01.033Z,12.60
2023-05-05T05:14:28.270Z,12.70
2023-05-05T05:16:55.042Z,12.70
2023-05-05T05:19:21.762Z,12.70
2023-05-05T05:21:48.565Z,12.80
2023-05-05T05:24:15.200Z,12.80
2023-05-05T05:26:41.882Z,12.90
2023-05-05T05:29:08.626Z,12.90
2023-05-05T05:31:36.845Z,13.00
2023-05-05T05:34:03.641Z,13.00
2023-05-05T05:36:30.297Z,13.10
2023-05-05T05:38:56.983Z,13.20
2023-05-05T05:41:23.598Z,13.30
2023-05-05T05:43:50.252Z,13.30
2023-05-05T05:46:16.902Z,13.40
2023-05-05T05:48:43.646Z,13.40
2023-05-05T05:51:10.229Z,13.50
2023-05-05T05:53:36.826Z,13.50
2023-05-05T05:56:03.431Z,13.60
2023-05-05T05:58:30.019Z,13.60
2023-05-05T06:00:59.170Z,13.60
2023-05-05T06:03:26.694Z,13.60
2023-05-05T06:05:53.566Z,13.50
2023-05-05T06:08:20.211Z,13.50
2023-05-05T06:10:48.274Z,13.60
2023-05-05T06:13:15.197Z,13.60
2023-05-05T06:15:41.934Z,13.70
2023-05-05T06:18:08.759Z,13.70
2023-05-05T06:20:35.459Z,13.70
2023-05-05T06:23:02.083Z,13.70
2023-05-05T06:25:28.738Z,13.70
2023-05-05T06:27:55.653Z,13.70
2023-05-05T06:30:22.268Z,13.80
2023-05-05T06:32:48.971Z,13.70
2023-05-05T06:35:15.668Z,13.80
2023-05-05T06:37:42.371Z,13.80
2023-05-05T06:40:09.269Z,13.90
2023-05-05T06:42:36.389Z,14.00
2023-05-05T06:45:03.016Z,14.00
2023-05-05T06:47:29.663Z,14.10
2023-05-05T06:49:56.770Z,14.10
2023-05-05T06:52:23.427Z,14.20
2023-05-05T06:54:50.050Z,14.30
2023-05-05T06:57:16.644Z,14.30
2023-05-05T06:59:43.251Z,14.40
2023-05-05T07:02:09.837Z,14.40
2023-05-05T07:04:36.618Z,14.40
2023-05-05T07:07:03.318Z,14.50
2023-05-05T07:09:30.000Z,14.60
2023-05-05T07:11:56.948Z,14.60
2023-05-05T07:14:24.524Z,14.60
2023-05-05T07:16:51.522Z,14.50
2023-05-05T07:19:18.305Z,14.60
2023-05-05T07:24:11.602Z,14.80
2023-05-05T07:26:38.382Z,14.90
2023-05-05T07:29:05.618Z,14.90
2023-05-05T07:31:32.252Z,14.90
2023-05-05T07:33:58.977Z,14.90
2023-05-05T07:36:27.932Z,14.90
2023-05-05T07:38:54.873Z,15.00
2023-05-05T07:41:21.792Z,15.10
2023-05-05T07:43:48.444Z,15.20
2023-05-05T07:46:15.276Z,15.10
2023-05-05T07:48:42.004Z,15.10
2023-05-05T07:51:08.826Z,15.10
2023-05-05T07:53:35.551Z,15.10
2023-05-05T07:56:02.212Z,15.10
2023-05-05T07:58:28.895Z,15.10
2023-05-05T08:00:55.602Z,15.10
2023-05-05T08:03:24.700Z,15.10
2023-05-05T08:05:51.844Z,15.10
2023-05-05T08:08:18.572Z,15.30
2023-05-05T08:10:45.298Z,15.40
2023-05-05T08:13:11.970Z,15.60
2023-05-05T08:15:38.648Z,15.70
2023-05-05T08:18:05.420Z,15.70
2023-05-05T08:20:32.167Z,15.40
2023-05-05T08:22:58.898Z,15.50
2023-05-05T08:25:27.020Z,15.40
2023-05-05T08:27:53.901Z,15.40
2023-05-05T08:30:21.487Z,15.60
2023-05-05T08:32:48.219Z,15.70
2023-05-05T08:35:14.904Z,15.90
2023-05-05T08:37:41.565Z,16.00
2023-05-05T08:40:08.211Z,16.10
2023-05-05T08:42:38.422Z,15.90
2023-05-05T08:45:06.249Z,15.90
2023-05-05T08:47:33.116Z,16.00
2023-05-05T08:49:59.734Z,16.10
2023-05-05T08:52:26.493Z,16.10
2023-05-05T08:54:53.186Z,16.10
2023-05-05T08:57:19.822Z,16.00
2023-05-05T08:59:46.494Z,16.10
2023-05-05T09:02:13.162Z,16.20
2023-05-05T09:04:39.837Z,16.10
2023-05-05T09:07:06.466Z,16.20
2023-05-05T09:09:33.118Z,16.30
2023-05-05T09:11:59.730Z,16.50
2023-05-05T09:14:26.317Z,16.80
2023-05-05T09:16:52.977Z,17.00
2023-05-05T09:19:19.578Z,17.10
2023-05-05T09:21:46.231Z,17.20
2023-05-05T09:24:12.961Z,17.20
2023-05-05T09:26:39.678Z,17.10
2023-05-05T09:29:06.324Z,17.20
2023-05-05T09:31:33.096Z,17.00
2023-05-05T09:34:01.156Z,16.90
2023-05-05T09:36:27.744Z,16.70
2023-05-05T09:38:54.391Z,16.70
2023-05-05T09:41:21.450Z,16.60
2023-05-05T09:43:48.045Z,16.80
2023-05-05T09:46:14.740Z,17.00
2023-05-05T09:48:41.421Z,17.00
2023-05-05T09:51:08.489Z,17.10
2023-05-05T09:53:35.043Z,17.40
2023-05-05T09:56:01.774Z,17.60
2023-05-05T09:58:28.403Z,17.80
2023-05-05T10:00:55.140Z,17.80
2023-05-05T10:03:21.804Z,17.70
2023-05-05T10:05:49.021Z,17.90
2023-05-05T10:08:15.698Z,17.90
2023-05-05T10:10:42.457Z,18.00
2023-05-05T10:13:09.119Z,17.80
2023-05-05T10:15:35.816Z,18.20
2023-05-05T10:18:06.790Z,18.40
2023-05-05T10:20:34.538Z,18.70
2023-05-05T10:23:01.146Z,18.80
2023-05-05T10:25:27.801Z,18.70
2023-05-05T10:27:54.515Z,18.70
2023-05-05T10:30:21.169Z,18.70
2023-05-05T10:32:57.318Z,18.70
2023-05-05T10:35:31.119Z,19.00
2023-05-05T10:37:58.005Z,19.20
2023-05-05T10:40:24.627Z,19.10
2023-05-05T10:42:51.407Z,18.80
2023-05-05T10:45:18.193Z,18.50
2023-05-05T10:47:44.940Z,18.30
2023-05-05T10:50:11.629Z,18.20
2023-05-05T10:52:38.365Z,17.90
2023-05-05T10:55:05.045Z,17.70
2023-05-05T10:57:31.893Z,17.60
2023-05-05T10:59:58.486Z,17.80
2023-05-05T11:02:25.289Z,18.00
2023-05-05T11:04:52.330Z,18.20
2023-05-05T11:07:19.049Z,18.40
2023-05-05T11:09:45.702Z,18.80
2023-05-05T11:12:13.810Z,18.90
2023-05-05T11:14:40.735Z,18.90
2023-05-05T11:17:07.388Z,19.00
2023-05-05T11:19:33.986Z,19.30
2023-05-05T11:22:00.846Z,19.70
2023-05-05T11:24:28.019Z,19.80
2023-05-05T11:26:54.716Z,19.80
2023-05-05T11:29:21.529Z,19.90
2023-05-05T11:31:48.152Z,19.90
2023-05-05T11:34:14.782Z,20.00
2023-05-05T11:36:41.537Z,19.70
2023-05-05T11:39:09.059Z,19.70
2023-05-05T11:41:35.799Z,19.70
2023-05-05T11:44:02.562Z,19.70
2023-05-05T11:46:29.385Z,19.80
2023-05-05T11:48:56.655Z,19.90
2023-05-05T11:51:23.299Z,20.10
2023-05-05T11:53:49.986Z,20.30
2023-05-05T11:56:21.880Z,20.50
2023-05-05T11:58:48.532Z,20.40
2023-05-05T12:01:15.281Z,20.20
2023-05-05T12:03:42.261Z,20.10
2023-05-05T12:06:09.020Z,20.30
2023-05-05T12:08:35.841Z,20.00
2023-05-05T12:11:02.784Z,20.00
2023-05-05T12:13:30.277Z,20.30
2023-05-05T12:15:57.008Z,20.70
2023-05-05T12:18:23.853Z,20.90
2023-05-05T12:20:51.534Z,20.80
2023-05-05T12:23:18.568Z,21.00
2023-05-05T12:25:46.411Z,20.90
2023-05-05T12:28:13.081Z,21.00
2023-05-05T12:30:39.802Z,21.50
2023-05-05T12:33:06.660Z,21.90
2023-05-05T12:35:33.416Z,21.80
2023-05-05T12:38:00.184Z,21.90
2023-05-05T12:40:26.853Z,21.90
2023-05-05T12:42:53.800Z,21.70
2023-05-05T12:45:20.388Z,21.50
2023-05-05T12:47:47.016Z,21.50
2023-05-05T12:50:13.663Z,21.50
2023-05-05T12:52:40.350Z,21.60
2023-05-05T12:55:07.128Z,21.50
2023-05-05T12:57:33.845Z,21.40
2023-05-05T13:00:00.532Z,21.30
2023-05-05T13:02:27.266Z,21.10
2023-05-05T13:04:53.872Z,20.80
2023-05-05T13:07:20.478Z,20.70
2023-05-05T13:09:47.480Z,20.60
2023-05-05T13:12:14.219Z,20.60
2023-05-05T13:14:41.952Z,20.30
2023-05-05T13:17:08.700Z,20.60
2023-05-05T13:19:41.615Z,21.00
2023-05-05T13:22:08.878Z,21.40
2023-05-05T13:24:49.960Z,21.90
2023-05-05T13:27:18.011Z,21.60
2023-05-05T13:29:44.730Z,21.00
2023-05-05T13:32:11.447Z,21.10
2023-05-05T13:34:39.271Z,21.20
2023-05-05T13:37:06.147Z,20.70
2023-05-05T13:39:32.765Z,20.70
2023-05-05T13:41:59.424Z,21.20
2023-05-05T13:44:26.079Z,21.60
2023-05-05T13:46:53.314Z,22.10
2023-05-05T13:49:20.294Z,22.30
2023-05-05T13:51:47.179Z,22.30
2023-05-05T13:54:13.956Z,22.60
2023-05-05T13:56:40.606Z,22.60
2023-05-05T13:59:07.306Z,23.00
2023-05-05T14:01:33.999Z,23.20
2023-05-05T14:04:03.557Z,23.10
2023-05-05T14:06:31.332Z,22.10
2023-05-05T14:08:57.967Z,21.80
2023-05-05T14:11:24.621Z,21.70
2023-05-05T14:13:52.001Z,21.70
2023-05-05T14:16:18.783Z,21.80
2023-05-05T14:18:45.679Z,21.90
2023-05-05T14:21:12.358Z,22.00
2023-05-05T14:23:38.996Z,22.30
2023-05-05T14:26:05.632Z,22.30
2023-05-05T14:28:32.279Z,22.30
2023-05-05T14:30:58.885Z,22.10
2023-05-05T14:33:25.580Z,21.50
2023-05-05T14:35:52.237Z,21.40
2023-05-05T14:38:18.922Z,21.30
2023-05-05T14:40:45.713Z,21.50
2023-05-05T14:43:12.356Z,21.90
2023-05-05T14:45:39.066Z,21.70
2023-05-05T14:48:05.878Z,21.90
2023-05-05T14:50:32.511Z,22.00
2023-05-05T14:52:59.106Z,22.50
2023-05-05T14:55:26.137Z,22.50
2023-05-05T14:57:52.868Z,22.10
2023-05-05T15:00:19.468Z,22.00
2023-05-05T15:02:48.491Z,22.10
2023-05-05T15:05:15.363Z,22.70
2023-05-05T15:07:41.993Z,22.80
2023-05-05T15:10:08.653Z,22.50
2023-05-05T15:12:35.364Z,22.10
2023-05-05T15:15:02.020Z,22.60
2023-05-05T15:17:30.793Z,22.90
2023-05-05T15:19:57.501Z,22.90
2023-05-05T15:22:24.195Z,23.10
2023-05-05T15:24:50.967Z,22.70
2023-05-05T15:27:18.311Z,22.80
2023-05-05T15:29:45.168Z,23.30
2023-05-05T15:32:11.792Z,23.20
2023-05-05T15:34:38.384Z,23.00
2023-05-05T15:37:05.168Z,22.90
2023-05-05T15:39:32.150Z,22.70
2023-05-05T15:41:58.906Z,22.70
2023-05-05T15:44:25.676Z,22.90
2023-05-05T15:46:52.378Z,22.70
2023-05-05T15:49:19.044Z,22.70
2023-05-05T15:51:45.705Z,22.60
2023-05-05T15:54:12.441Z,22.60
2023-05-05T15:56:39.157Z,22.40
2023-05-05T15:59:05.838Z,22.50
2023-05-05T16:01:33.525Z,22.50
2023-05-05T16:04:01.348Z,22.60
2023-05-05T16:06:27.971Z,22.60
2023-05-05T16:08:56.216Z,22.80
2023-05-05T16:11:23.880Z,22.60
2023-05-05T16:13:50.635Z,22.30
2023-05-05T16:16:17.421Z,22.30
2023-05-05T16:18:44.283Z,21.90
2023-05-05T16:21:11.099Z,22.50
2023-05-05T16:23:37.760Z,22.60
2023-05-05T16:26:04.434Z,22.20
2023-05-05T16:28:31.069Z,22.00
2023-05-05T16:30:57.682Z,22.50
2023-05-05T16:33:24.685Z,22.40
2023-05-05T16:35:51.305Z,22.00
2023-05-05T16:38:17.933Z,22.50
2023-05-05T16:40:44.712Z,22.70
2023-05-05T16:43:11.531Z,22.80
2023-05-05T16:45:38.199Z,22.60
2023-05-05T16:48:07.427Z,22.00
2023-05-05T16:50:35.577Z,21.80
2023-05-05T16:53:02.228Z,21.70
2023-05-05T16:55:28.902Z,21.30
2023-05-05T16:57:55.526Z,21.00
2023-05-05T17:00:22.343Z,21.20
2023-05-05T17:02:49.104Z,21.20
2023-05-05T17:05:17.585Z,21.60
2023-05-05T17:07:44.364Z,21.60
2023-05-05T17:10:11.062Z,21.90
2023-05-05T17:12:37.845Z,22.00
2023-05-05T17:15:04.612Z,21.90
2023-05-05T17:17:31.312Z,21.60
2023-05-05T17:19:58.261Z,21.80
2023-05-05T17:22:24.928Z,21.80
2023-05-05T17:24:52.097Z,21.90
2023-05-05T17:27:18.832Z,21.70
2023-05-05T17:29:45.463Z,21.70
2023-05-05T17:32:12.194Z,21.40
2023-05-05T17:34:38.919Z,21.60
2023-05-05T17:37:05.588Z,21.80
2023-05-05T17:39:32.261Z,22.00
2023-05-05T17:41:59.029Z,21.60
2023-05-05T17:44:25.702Z,21.40
2023-05-05T17:46:52.443Z,21.10
2023-05-05T17:49:19.208Z,20.70
2023-05-05T17:51:45.894Z,20.50
2023-05-05T17:54:12.815Z,20.30
2023-05-05T17:56:39.676Z,20.20
2023-05-05T17:59:06.490Z,20.20
2023-05-05T18:01:33.327Z,20.00
2023-05-05T18:04:00.126Z,19.50
2023-05-05T18:06:27.090Z,19.50
2023-05-05T18:08:53.761Z,19.50
2023-05-05T18:11:21.468Z,19.50
2023-05-05T18:13:48.233Z,19.50
2023-05-05T18:16:15.061Z,19.40
2023-05-05T18:18:41.936Z,19.20
2023-05-05T18:21:12.273Z,19.10
2023-05-05T18:23:39.237Z,19.10
2023-05-05T18:26:07.996Z,18.90
2023-05-05T18:28:34.724Z,18.90
2023-05-05T18:31:01.673Z,18.90
2023-05-05T18:33:28.511Z,18.80
2023-05-05T18:35:55.607Z,18.70
2023-05-05T18:38:22.442Z,18.60
2023-05-05T18:40:51.584Z,18.60
2023-05-05T18:43:18.342Z,18.40
2023-05-05T18:45:45.606Z,18.30
2023-05-05T18:48:12.453Z,18.10
2023-05-05T18:50:42.962Z,18.00
2023-05-05T18:53:13.880Z,17.90
2023-05-05T18:55:46.272Z,17.80
2023-05-05T18:58:13.484Z,17.80
2023-05-05T19:00:40.462Z,17.70
2023-05-05T19:03:07.310Z,17.60
2023-05-05T19:05:36.567Z,17.60
2023-05-05T19:08:09.636Z,17.50
2023-05-05T19:10:36.567Z,17.50
2023-05-05T19:13:03.442Z,17.30
2023-05-05T19:15:30.324Z,17.30
2023-05-05T19:17:57.226Z,17.20
2023-05-05T19:20:24.053Z,17.10
2023-05-05T19:23:02.610Z,17.00
2023-05-05T19:25:29.509Z,17.10
2023-05-05T19:27:56.409Z,17.00
2023-05-05T19:30:26.366Z,16.90
2023-05-05T19:32:56.019Z,16.90
2023-05-05T19:35:22.929Z,16.80
2023-05-05T19:37:52.602Z,16.80
2023-05-05T19:40:22.274Z,16.80
2023-05-05T19:42:49.271Z,16.80
2023-05-05T19:45:16.605Z,16.80
2023-05-05T19:47:46.291Z,16.80
2023-05-05T19:50:26.169Z,16.70
2023-05-05T19:53:04.794Z,16.70
2023-05-05T19:55:36.220Z,16.60
2023-05-05T19:58:05.412Z,16.60
2023-05-05T20:00:41.183Z,16.50
2023-05-05T20:03:11.466Z,16.40
2023-05-05T20:05:38.649Z,16.30
2023-05-05T20:08:08.153Z,16.20
2023-05-05T20:10:51.514Z,16.10
2023-05-05T20:13:18.303Z,16.00
2023-05-05T20:15:45.235Z,15.90
2023-05-05T20:18:11.987Z,15.80
2023-05-05T20:20:38.739Z,15.70
2023-05-05T20:23:05.481Z,15.60
2023-05-05T20:25:32.168Z,15.60
2023-05-05T20:27:58.991Z,15.40
2023-05-05T20:30:25.679Z,15.40
2023-05-05T20:32:53.604Z,15.30
2023-05-05T20:35:20.528Z,15.30
2023-05-05T20:37:47.262Z,15.20
2023-05-05T20:40:14.158Z,15.20
2023-05-05T20:42:41.081Z,15.10
2023-05-05T20:45:08.314Z,15.00
2023-05-05T20:47:35.626Z,15.10
2023-05-05T20:50:02.694Z,15.00
2023-05-05T20:52:29.674Z,14.90
2023-05-05T20:54:56.549Z,14.90
2023-05-05T20:57:23.212Z,14.80
2023-05-05T20:59:50.064Z,14.80
2023-05-05T21:02:17.362Z,14.80
2023-05-05T21:04:44.232Z,14.80
2023-05-05T21:07:11.151Z,14.70
2023-05-05T21:09:38.003Z,14.60
2023-05-05T21:12:04.730Z,14.60
2023-05-05T21:14:31.500Z,14.60
2023-05-05T21:16:58.386Z,14.60
2023-05-05T21:19:25.188Z,14.50
2023-05-05T21:21:53.107Z,14.40
2023-05-05T21:24:19.845Z,14.40
2023-05-05T21:26:46.660Z,14.30
2023-05-05T21:29:13.354Z,14.30
2023-05-05T21:31:40.241Z,14.20
2023-05-05T21:34:07.127Z,14.20
2023-05-05T21:36:34.115Z,14.10
2023-05-05T21:39:01.201Z,14.00
2023-05-05T21:41:27.929Z,14.00
2023-05-05T21:43:54.776Z,14.00
2023-05-05T21:46:21.728Z,14.00
2023-05-05T21:48:48.553Z,14.00
2023-05-05T21:51:15.265Z,13.90
2023-05-05T21:53:42.129Z,13.90
2023-05-05T21:56:08.871Z,13.90
2023-05-05T21:58:35.679Z,13.80
2023-05-05T22:01:02.732Z,13.80
2023-05-05T22:03:29.579Z,13.80
2023-05-05T22:05:56.536Z,13.70
2023-05-05T22:08:23.413Z,13.70
2023-05-05T22:10:53.060Z,13.70
2023-05-05T22:13:19.964Z,13.70
2023-05-05T22:15:47.626Z,13.70
2023-05-05T22:18:14.516Z,13.80
2023-05-05T22:20:41.295Z,13.80
2023-05-05T22:23:15.429Z,13.80
2023-05-05T22:25:42.203Z,13.80
2023-05-05T22:28:08.914Z,13.80
2023-05-05T22:30:36.018Z,13.80
2023-05-05T22:33:02.770Z,13.80
2023-05-05T22:35:29.732Z,13.70
2023-05-05T22:37:56.518Z,13.60
2023-05-05T22:40:23.295Z,13.60
2023-05-05T22:42:50.054Z,13.50
2023-05-05T22:45:16.893Z,13.50
2023-05-05T22:47:44.486Z,13.40
2023-05-05T22:50:11.294Z,13.40
2023-05-05T22:52:37.980Z,13.40
2023-05-05T22:55:04.859Z,13.40
2023-05-05T22:57:31.708Z,13.40
2023-05-05T22:59:58.573Z,13.30
2023-05-05T23:02:26.727Z,13.40
2023-05-05T23:04:53.715Z,13.40
2023-05-05T23:07:20.493Z,13.30
2023-05-05T23:09:47.237Z,13.30
2023-05-05T23:12:13.890Z,13.30
2023-05-05T23:14:40.707Z,13.20
2023-05-05T23:17:07.454Z,13.20
2023-05-05T23:19:34.824Z,13.20
2023-05-05T23:22:01.460Z,13.10
2023-05-05T23:24:28.245Z,13.10
2023-05-05T23:26:55.116Z,13.00
2023-05-05T23:29:21.883Z,12.90
2023-05-05T23:31:48.713Z,12.90
2023-05-05T23:34:15.461Z,12.80
2023-05-05T23:36:42.220Z,12.80
2023-05-05T23:39:09.022Z,12.70
2023-05-05T23:41:36.236Z,12.70
2023-05-05T23:44:03.126Z,12.60
2023-05-05T23:46:29.943Z,12.50
2023-05-05T23:48:56.853Z,12.50
2023-05-05T23:51:23.803Z,12.40
2023-05-05T23:53:50.532Z,12.40
2023-05-05T23:56:17.560Z,12.40
2023-05-05T23:58:44.444Z,12.30
